Time,TemperatureF,DewpointF,PressureIn,WindDirection,WindDirectionDegrees,WindSpeedMPH,WindSpeedGustMPH,Humidity,HourlyPrecipIn,Conditions,Clouds,dailyrainin,SoftwareType,DateUTC
2013-03-30 00:00:00,42.4,40.0,30.26,ENE,68,2.0,4.0,91,0.00,,---,0.00,VWS V14.01,2013-03-30 07:00:00,
2013-03-30 00:15:00,42.1,40.0,30.26,ENE,68,2.0,4.0,92,0.00,,---,0.00,VWS V14.01,2013-03-30 07:15:00,
2013-03-30 00:30:00,41.8,39.7,30.26,ENE,68,3.0,5.0,92,0.00,,---,0.00,VWS V14.01,2013-03-30 07:30:00,
2013-03-30 00:45:00,41.3,39.4,30.26,NE,45,2.0,6.0,93,0.00,,---,0.00,VWS V14.01,2013-03-30 07:45:00,
2013-03-30 01:00:00,40.8,39.2,30.26,ENE,68,2.0,5.0,94,0.00,,---,0.00,VWS V14.01,2013-03-30 08:00:00,
2013-03-30 01:15:00,40.8,39.5,30.27,ENE,68,2.0,5.0,95,0.00,,---,0.00,VWS V14.01,2013-03-30 08:15:00,
2013-03-30 01:30:00,40.9,39.6,30.27,ENE,68,1.0,5.0,95,0.00,,---,0.00,VWS V14.01,2013-03-30 08:30:00,
2013-03-30 01:45:00,40.9,39.6,30.27,ENE,68,0.0,3.0,95,0.00,,---,0.00,VWS V14.01,2013-03-30 08:45:00,
2013-03-30 02:00:00,40.9,39.6,30.27,ENE,68,1.0,3.0,95,0.00,,---,0.00,VWS V14.01,2013-03-30 09:00:00,
2013-03-30 02:15:00,40.7,39.7,30.27,ENE,68,1.0,3.0,96,0.00,,---,0.00,VWS V14.01,2013-03-30 09:15:00,
2013-03-30 02:30:00,40.7,39.7,30.27,ENE,68,1.0,5.0,96,0.00,,---,0.00,VWS V14.01,2013-03-30 09:30:00,
2013-03-30 02:45:00,40.6,39.5,30.27,ENE,68,1.0,5.0,96,0.00,,---,0.00,VWS V14.01,2013-03-30 09:45:00,
2013-03-30 03:00:00,40.5,39.5,30.27,NE,45,1.0,4.0,96,0.00,,---,0.00,VWS V14.01,2013-03-30 10:00:00,
2013-03-30 03:15:00,40.5,39.5,30.27,ENE,68,1.0,3.0,96,0.00,,---,0.00,VWS V14.01,2013-03-30 10:15:00,
2013-03-30 03:30:00,40.4,39.3,30.27,ENE,68,2.0,6.0,96,0.00,,---,0.00,VWS V14.01,2013-03-30 10:30:00,
2013-03-30 03:45:00,40.3,39.2,30.27,ENE,68,3.0,6.0,96,0.00,,---,0.00,VWS V14.01,2013-03-30 10:45:00,
2013-03-30 04:00:00,40.2,39.2,30.26,ENE,68,3.0,5.0,96,0.00,,---,0.00,VWS V14.01,2013-03-30 11:00:00,
2013-03-30 04:15:00,40.1,39.0,30.26,ENE,68,2.0,6.0,96,0.00,,---,0.00,VWS V14.01,2013-03-30 11:15:00,
2013-03-30 04:30:00,40.1,39.0,30.26,ENE,68,2.0,5.0,96,0.00,,---,0.00,VWS V14.01,2013-03-30 11:30:00,
2013-03-30 05:00:00,40.0,39.0,30.26,NE,45,1.0,4.0,96,0.00,,---,0.00,VWS V14.01,2013-03-30 12:00:00,
2013-03-30 05:15:00,39.8,38.8,30.26,ENE,68,0.0,4.0,96,0.00,,---,0.00,VWS V14.01,2013-03-30 12:15:00,
2013-03-30 05:30:00,39.5,38.5,30.26,ENE,68,2.0,5.0,96,0.00,,---,0.00,VWS V14.01,2013-03-30 12:30:00,
2013-03-30 05:45:00,39.4,38.4,30.26,ENE,68,2.0,5.0,96,0.00,,---,0.00,VWS V14.01,2013-03-30 12:45:00,
2013-03-30 06:00:00,39.5,38.5,30.26,ENE,68,3.0,7.0,96,0.00,,---,0.00,VWS V14.01,2013-03-30 13:00:00,
2013-03-30 06:15:00,39.6,38.6,30.26,ENE,68,3.0,7.0,96,0.00,,---,0.00,VWS V14.01,2013-03-30 13:15:00,
2013-03-30 06:30:00,39.5,38.5,30.26,ENE,68,3.0,6.0,96,0.00,,---,0.00,VWS V14.01,2013-03-30 13:30:00,
2013-03-30 06:55:00,39.5,38.7,30.26,NE,47,2.0,3.0,97,0.00,,---,0.00,VWS V14.01,2013-03-30 13:55:00,
2013-03-30 07:00:00,39.5,38.7,30.26,ENE,65,0.0,8.0,97,0.00,,---,0.00,VWS V14.01,2013-03-30 14:00:00,
2013-03-30 07:05:00,39.5,38.7,30.26,ENE,71,1.0,4.0,97,0.00,,---,0.00,VWS V14.01,2013-03-30 14:05:00,
2013-03-30 07:10:00,39.5,38.7,30.26,NE,56,1.0,4.0,97,0.00,,---,0.00,VWS V14.01,2013-03-30 14:10:00,
2013-03-30 07:15:00,39.6,38.8,30.27,NE,51,1.0,4.0,97,0.00,,---,0.00,VWS V14.01,2013-03-30 14:15:00,
2013-03-30 07:20:00,39.6,38.8,30.27,ENE,71,2.0,5.0,97,0.00,,---,0.00,VWS V14.01,2013-03-30 14:20:00,
2013-03-30 07:25:00,39.7,38.9,30.27,ENE,66,1.0,5.0,97,0.00,,---,0.00,VWS V14.01,2013-03-30 14:25:00,
2013-03-30 07:30:00,39.7,38.9,30.27,NE,39,3.0,5.0,97,0.00,,---,0.00,VWS V14.01,2013-03-30 14:30:00,
2013-03-30 07:35:00,39.8,39.0,30.27,NE,53,6.0,6.0,97,0.00,,---,0.00,VWS V14.01,2013-03-30 14:35:00,
2013-03-30 07:40:00,39.9,39.1,30.27,ENE,63,4.0,6.0,97,0.00,,---,0.00,VWS V14.01,2013-03-30 14:40:00,
2013-03-30 07:45:00,39.9,39.1,30.27,NE,41,3.0,6.0,97,0.00,,---,0.00,VWS V14.01,2013-03-30 14:45:00,
2013-03-30 07:50:00,40.0,39.2,30.27,NE,55,3.0,5.0,97,0.00,,---,0.00,VWS V14.01,2013-03-30 14:50:00,
2013-03-30 07:55:00,40.2,39.4,30.27,NE,53,4.0,7.0,97,0.00,,---,0.00,VWS V14.01,2013-03-30 14:55:00,
2013-03-30 08:00:00,40.4,39.6,30.27,ENE,58,2.0,7.0,97,0.00,,---,0.00,VWS V14.01,2013-03-30 15:00:00,
2013-03-30 08:05:00,40.6,39.8,30.27,ENE,77,3.0,5.0,97,0.00,,---,0.00,VWS V14.01,2013-03-30 15:05:00,
2013-03-30 08:10:00,40.8,40.0,30.27,ENE,65,2.0,5.0,97,0.00,,---,0.00,VWS V14.01,2013-03-30 15:10:00,
2013-03-30 08:15:00,41.2,40.4,30.27,NE,51,2.0,5.0,97,0.00,,---,0.00,VWS V14.01,2013-03-30 15:15:00,
2013-03-30 08:20:00,41.6,40.8,30.27,NE,49,2.0,3.0,97,0.00,,---,0.00,VWS V14.01,2013-03-30 15:20:00,
2013-03-30 08:25:00,42.2,41.4,30.27,East,81,2.0,3.0,97,0.00,,---,0.00,VWS V14.01,2013-03-30 15:25:00,
2013-03-30 08:30:00,42.4,41.6,30.27,ENE,63,2.0,3.0,97,0.00,,---,0.00,VWS V14.01,2013-03-30 15:30:00,
2013-03-30 08:35:00,42.6,41.8,30.27,ENE,57,4.0,5.0,97,0.00,,---,0.00,VWS V14.01,2013-03-30 15:35:00,
2013-03-30 08:40:00,42.8,42.0,30.27,ENE,77,4.0,5.0,97,0.00,,---,0.00,VWS V14.01,2013-03-30 15:40:00,
2013-03-30 08:45:00,43.2,42.4,30.27,ENE,71,3.0,5.0,97,0.00,,---,0.00,VWS V14.01,2013-03-30 15:45:00,
2013-03-30 08:50:00,43.7,42.9,30.27,ENE,76,2.0,5.0,97,0.00,,---,0.00,VWS V14.01,2013-03-30 15:50:00,
2013-03-30 08:55:00,44.2,43.1,30.26,East,88,2.0,5.0,96,0.00,,---,0.00,VWS V14.01,2013-03-30 15:55:00,
2013-03-30 09:00:00,44.9,43.8,30.26,ENE,73,1.0,5.0,96,0.00,,---,0.00,VWS V14.01,2013-03-30 16:00:00,
2013-03-30 09:05:00,45.5,43.9,30.26,ENE,69,2.0,4.0,94,0.00,,---,0.00,VWS V14.01,2013-03-30 16:05:00,
2013-03-30 09:10:00,46.1,44.2,30.26,NNE,28,3.0,4.0,93,0.00,,---,0.00,VWS V14.01,2013-03-30 16:10:00,
2013-03-30 09:15:00,46.7,44.2,30.26,East,82,0.0,5.0,91,0.00,,---,0.00,VWS V14.01,2013-03-30 16:15:00,
2013-03-30 09:20:00,47.3,44.5,30.26,NE,46,2.0,6.0,90,0.00,,---,0.00,VWS V14.01,2013-03-30 16:20:00,
2013-03-30 09:25:00,47.8,44.7,30.26,NE,47,3.0,6.0,89,0.00,,---,0.00,VWS V14.01,2013-03-30 16:25:00,
2013-03-30 09:30:00,48.4,45.0,30.26,ENE,66,3.0,6.0,88,0.00,,---,0.00,VWS V14.01,2013-03-30 16:30:00,
2013-03-30 09:35:00,48.7,45.3,30.25,ENE,69,3.0,7.0,88,0.00,,---,0.00,VWS V14.01,2013-03-30 16:35:00,
2013-03-30 09:40:00,49.1,45.4,30.26,ENE,69,4.0,7.0,87,0.00,,---,0.00,VWS V14.01,2013-03-30 16:40:00,
2013-03-30 09:45:00,49.3,45.3,30.25,ENE,60,5.0,8.0,86,0.00,,---,0.00,VWS V14.01,2013-03-30 16:45:00,
2013-03-30 09:50:00,49.4,45.4,30.25,East,82,1.0,6.0,86,0.00,,---,0.00,VWS V14.01,2013-03-30 16:50:00,
2013-03-30 09:55:00,49.7,45.1,30.25,East,86,6.0,10.0,84,0.00,,---,0.00,VWS V14.01,2013-03-30 16:55:00,
2013-03-30 10:00:00,49.9,45.0,30.25,NNE,30,2.0,10.0,83,0.00,,---,0.00,VWS V14.01,2013-03-30 17:00:00,
2013-03-30 10:05:00,50.2,45.2,30.25,NE,53,4.0,6.0,83,0.00,,---,0.00,VWS V14.01,2013-03-30 17:05:00,
2013-03-30 10:10:00,50.7,45.4,30.25,East,94,2.0,9.0,82,0.00,,---,0.00,VWS V14.01,2013-03-30 17:10:00,
2013-03-30 10:15:00,51.0,45.1,30.25,ENE,78,4.0,9.0,80,0.00,,---,0.00,VWS V14.01,2013-03-30 17:15:00,
2013-03-30 10:20:00,51.2,44.9,30.25,NE,40,4.0,8.0,79,0.00,,---,0.00,VWS V14.01,2013-03-30 17:20:00,
2013-03-30 10:25:00,51.3,45.0,30.25,ENE,60,3.0,10.0,79,0.00,,---,0.00,VWS V14.01,2013-03-30 17:25:00,
2013-03-30 10:30:00,51.5,45.5,30.25,ESE,109,3.0,10.0,80,0.00,,---,0.00,VWS V14.01,2013-03-30 17:30:00,
2013-03-30 10:35:00,51.7,45.1,30.25,NE,47,6.0,9.0,78,0.00,,---,0.00,VWS V14.01,2013-03-30 17:35:00,
2013-03-30 10:40:00,52.0,45.4,30.25,East,101,7.0,9.0,78,0.00,,---,0.00,VWS V14.01,2013-03-30 17:40:00,
2013-03-30 10:45:00,52.1,45.5,30.25,WSW,242,5.0,11.0,78,0.00,,---,0.00,VWS V14.01,2013-03-30 17:45:00,
2013-03-30 10:50:00,52.2,45.2,30.25,NE,49,4.0,8.0,77,0.00,,---,0.00,VWS V14.01,2013-03-30 17:50:00,
2013-03-30 10:55:00,52.3,45.7,30.25,NE,50,6.0,10.0,78,0.00,,---,0.00,VWS V14.01,2013-03-30 17:55:00,
2013-03-30 11:00:00,52.5,45.5,30.25,ENE,63,3.0,10.0,77,0.00,,---,0.00,VWS V14.01,2013-03-30 18:00:00,
2013-03-30 11:05:00,52.9,45.9,30.25,ENE,70,0.0,9.0,77,0.00,,---,0.00,VWS V14.01,2013-03-30 18:05:00,
2013-03-30 11:10:00,52.8,45.8,30.25,North,5,5.0,9.0,77,0.00,,---,0.00,VWS V14.01,2013-03-30 18:10:00,
2013-03-30 11:15:00,53.0,46.3,30.25,SE,128,2.0,9.0,78,0.00,,---,0.00,VWS V14.01,2013-03-30 18:15:00,
2013-03-30 11:20:00,53.3,46.3,30.25,SE,138,3.0,5.0,77,0.00,,---,0.00,VWS V14.01,2013-03-30 18:20:00,
2013-03-30 11:25:00,53.5,45.8,30.24,ESE,102,1.0,9.0,75,0.00,,---,0.00,VWS V14.01,2013-03-30 18:25:00,
2013-03-30 11:30:00,53.5,46.1,30.24,East,79,1.0,9.0,76,0.00,,---,0.00,VWS V14.01,2013-03-30 18:30:00,
2013-03-30 11:35:00,53.9,46.5,30.24,NNE,33,4.0,7.0,76,0.00,,---,0.00,VWS V14.01,2013-03-30 18:35:00,
2013-03-30 11:40:00,54.0,46.3,30.24,ENE,62,5.0,12.0,75,0.00,,---,0.00,VWS V14.01,2013-03-30 18:40:00,
2013-03-30 11:45:00,53.8,46.1,30.24,WNW,302,3.0,12.0,75,0.00,,---,0.00,VWS V14.01,2013-03-30 18:45:00,
2013-03-30 11:50:00,54.0,46.3,30.24,West,269,5.0,6.0,75,0.00,,---,0.00,VWS V14.01,2013-03-30 18:50:00,
2013-03-30 11:55:00,54.2,46.5,30.24,NNW,340,4.0,6.0,75,0.00,,---,0.00,VWS V14.01,2013-03-30 18:55:00,
2013-03-30 12:00:00,54.3,46.2,30.24,WNW,292,3.0,9.0,74,0.00,,---,0.00,VWS V14.01,2013-03-30 19:00:00,
2013-03-30 12:05:00,54.6,46.5,30.24,East,100,3.0,7.0,74,0.00,,---,0.00,VWS V14.01,2013-03-30 19:05:00,
2013-03-30 12:10:00,54.9,46.8,30.24,ENE,76,2.0,7.0,74,0.00,,---,0.00,VWS V14.01,2013-03-30 19:10:00,
2013-03-30 12:15:00,55.3,47.5,30.24,West,278,0.0,7.0,75,0.00,,---,0.00,VWS V14.01,2013-03-30 19:15:00,
2013-03-30 12:20:00,55.6,46.7,30.24,ENE,78,0.0,5.0,72,0.00,,---,0.00,VWS V14.01,2013-03-30 19:20:00,
2013-03-30 12:25:00,55.7,46.5,30.24,NNW,331,2.0,14.0,71,0.00,,---,0.00,VWS V14.01,2013-03-30 19:25:00,
2013-03-30 12:30:00,55.7,47.5,30.24,East,100,6.0,14.0,74,0.00,,---,0.00,VWS V14.01,2013-03-30 19:30:00,
2013-03-30 12:35:00,55.9,46.7,30.24,WNW,293,3.0,5.0,71,0.00,,---,0.00,VWS V14.01,2013-03-30 19:35:00,
2013-03-30 12:40:00,56.2,47.3,30.23,North,351,1.0,7.0,72,0.00,,---,0.00,VWS V14.01,2013-03-30 19:40:00,
2013-03-30 12:45:00,56.4,47.1,30.23,ENE,66,1.0,8.0,71,0.00,,---,0.00,VWS V14.01,2013-03-30 19:45:00,
2013-03-30 12:50:00,56.7,47.0,30.23,WNW,294,3.0,5.0,70,0.00,,---,0.00,VWS V14.01,2013-03-30 19:50:00,
2013-03-30 12:55:00,56.8,47.1,30.23,West,264,9.0,10.0,70,0.00,,---,0.00,VWS V14.01,2013-03-30 19:55:00,
2013-03-30 13:00:00,56.9,47.2,30.23,NW,315,3.0,10.0,70,0.00,,---,0.00,VWS V14.01,2013-03-30 20:00:00,
2013-03-30 13:05:00,57.2,47.1,30.22,WSW,249,5.0,7.0,69,0.00,,---,0.00,VWS V14.01,2013-03-30 20:05:00,
2013-03-30 13:10:00,57.3,46.8,30.22,South,177,3.0,9.0,68,0.00,,---,0.00,VWS V14.01,2013-03-30 20:10:00,
2013-03-30 13:15:00,57.4,47.3,30.22,SSW,203,2.0,9.0,69,0.00,,---,0.00,VWS V14.01,2013-03-30 20:15:00,
2013-03-30 13:20:00,57.8,46.9,30.22,WNW,300,6.0,8.0,67,0.00,,---,0.00,VWS V14.01,2013-03-30 20:20:00,
2013-03-30 13:25:00,58.1,46.8,30.22,East,99,6.0,8.0,66,0.00,,---,0.00,VWS V14.01,2013-03-30 20:25:00,
2013-03-30 13:30:00,58.3,47.0,30.22,SW,228,1.0,10.0,66,0.00,,---,0.00,VWS V14.01,2013-03-30 20:30:00,
2013-03-30 13:35:00,58.5,47.2,30.22,West,271,2.0,8.0,66,0.00,,---,0.00,VWS V14.01,2013-03-30 20:35:00,
2013-03-30 13:40:00,58.8,46.7,30.22,North,10,1.0,8.0,64,0.00,,---,0.00,VWS V14.01,2013-03-30 20:40:00,
2013-03-30 13:45:00,59.1,47.0,30.21,ENE,57,0.0,8.0,64,0.00,,---,0.00,VWS V14.01,2013-03-30 20:45:00,
2013-03-30 13:49:00,59.3,47.1,30.21,SSE,160,1.0,6.0,64,0.00,,---,0.00,VWS V14.01,2013-03-30 20:49:00,
2013-03-30 13:54:00,59.1,45.7,30.21,South,178,1.0,8.0,61,0.00,,---,0.00,VWS V14.01,2013-03-30 20:54:00,
2013-03-30 14:00:00,59.0,45.6,30.21,NE,39,3.0,11.0,61,0.00,,---,0.00,VWS V14.01,2013-03-30 21:00:00,
2013-03-30 14:05:00,59.2,45.8,30.20,North,355,2.0,9.0,61,0.00,,---,0.00,VWS V14.01,2013-03-30 21:05:00,
2013-03-30 14:10:00,59.5,45.6,30.20,NW,319,1.0,9.0,60,0.00,,---,0.00,VWS V14.01,2013-03-30 21:10:00,
2013-03-30 14:15:00,59.5,45.6,30.20,ESE,121,2.0,11.0,60,0.00,,---,0.00,VWS V14.01,2013-03-30 21:15:00,
2013-03-30 14:19:00,59.3,45.4,30.20,NNE,24,7.0,9.0,60,0.00,,---,0.00,VWS V14.01,2013-03-30 21:19:00,
2013-03-30 14:24:00,59.2,45.8,30.20,SE,131,0.0,11.0,61,0.00,,---,0.00,VWS V14.01,2013-03-30 21:24:00,
2013-03-30 14:30:00,59.5,46.1,30.20,East,80,1.0,11.0,61,0.00,,---,0.00,VWS V14.01,2013-03-30 21:30:00,
2013-03-30 14:35:00,59.8,45.9,30.19,East,92,5.0,9.0,60,0.00,,---,0.00,VWS V14.01,2013-03-30 21:35:00,
2013-03-30 14:40:00,59.8,45.9,30.19,ENE,75,10.0,10.0,60,0.00,,---,0.00,VWS V14.01,2013-03-30 21:40:00,
2013-03-30 14:44:00,60.1,45.7,30.19,ENE,63,11.0,11.0,59,0.00,,---,0.00,VWS V14.01,2013-03-30 21:44:00,
2013-03-30 14:50:00,60.2,45.4,30.19,East,89,5.0,6.0,58,0.00,,---,0.00,VWS V14.01,2013-03-30 21:50:00,
2013-03-30 14:54:00,60.3,44.6,30.19,NE,46,4.0,11.0,56,0.00,,---,0.00,VWS V14.01,2013-03-30 21:54:00,
2013-03-30 14:59:00,60.2,43.0,30.19,ENE,65,5.0,12.0,53,0.00,,---,0.00,VWS V14.01,2013-03-30 21:59:00,
2013-03-30 15:04:00,59.7,43.5,30.18,East,88,3.0,9.0,55,0.00,,---,0.00,VWS V14.01,2013-03-30 22:04:00,
2013-03-30 15:09:00,60.2,43.0,30.18,NNE,17,7.0,9.0,53,0.00,,---,0.00,VWS V14.01,2013-03-30 22:09:00,
2013-03-30 15:14:00,60.1,43.4,30.18,NNE,16,5.0,9.0,54,0.00,,---,0.00,VWS V14.01,2013-03-30 22:14:00,
2013-03-30 15:19:00,60.4,43.7,30.18,ENE,67,4.0,7.0,54,0.00,,---,0.00,VWS V14.01,2013-03-30 22:19:00,
2013-03-30 15:24:00,60.7,44.0,30.18,NNW,333,3.0,7.0,54,0.00,,---,0.00,VWS V14.01,2013-03-30 22:24:00,
2013-03-30 15:29:00,60.8,43.1,30.18,NNE,22,4.0,10.0,52,0.00,,---,0.00,VWS V14.01,2013-03-30 22:29:00,
2013-03-30 15:34:00,60.9,43.7,30.17,ENE,59,0.0,7.0,53,0.00,,---,0.00,VWS V14.01,2013-03-30 22:34:00,
2013-03-30 15:39:00,61.1,44.8,30.17,NE,36,4.0,9.0,55,0.00,,---,0.00,VWS V14.01,2013-03-30 22:39:00,
2013-03-30 15:44:00,61.6,43.8,30.17,SE,132,1.0,9.0,52,0.00,,---,0.00,VWS V14.01,2013-03-30 22:44:00,
2013-03-30 15:49:00,62.6,44.2,30.17,NW,311,1.0,6.0,51,0.00,,---,0.00,VWS V14.01,2013-03-30 22:49:00,
2013-03-30 15:54:00,62.5,43.6,30.16,North,355,1.0,8.0,50,0.00,,---,0.00,VWS V14.01,2013-03-30 22:54:00,
2013-03-30 15:59:00,62.4,44.6,30.16,West,259,3.0,8.0,52,0.00,,---,0.00,VWS V14.01,2013-03-30 22:59:00,
2013-03-30 16:04:00,62.3,44.0,30.16,ESE,102,1.0,8.0,51,0.00,,---,0.00,VWS V14.01,2013-03-30 23:04:00,
2013-03-30 16:09:00,62.1,44.3,30.16,ENE,77,0.0,8.0,52,0.00,,---,0.00,VWS V14.01,2013-03-30 23:09:00,
2013-03-30 16:14:00,63.2,44.8,30.16,NNE,28,2.0,8.0,51,0.00,,---,0.00,VWS V14.01,2013-03-30 23:14:00,
2013-03-30 16:19:00,63.0,44.1,30.16,ENE,69,3.0,6.0,50,0.00,,---,0.00,VWS V14.01,2013-03-30 23:19:00,
2013-03-30 16:24:00,62.9,44.0,30.16,NNW,331,3.0,8.0,50,0.00,,---,0.00,VWS V14.01,2013-03-30 23:24:00,
2013-03-30 16:29:00,62.8,44.4,30.16,NE,54,3.0,8.0,51,0.00,,---,0.00,VWS V14.01,2013-03-30 23:29:00,
2013-03-30 16:34:00,62.9,44.0,30.16,North,5,1.0,4.0,50,0.00,,---,0.00,VWS V14.01,2013-03-30 23:34:00,
2013-03-30 16:39:00,62.8,44.4,30.16,NW,325,0.0,7.0,51,0.00,,---,0.00,VWS V14.01,2013-03-30 23:39:00,
2013-03-30 16:44:00,63.2,43.7,30.15,East,101,5.0,8.0,49,0.00,,---,0.00,VWS V14.01,2013-03-30 23:44:00,
2013-03-30 16:49:00,62.2,43.3,30.15,ESE,111,8.0,8.0,50,0.00,,---,0.00,VWS V14.01,2013-03-30 23:49:00,
2013-03-30 16:54:00,61.6,42.8,30.15,NNE,15,2.0,8.0,50,0.00,,---,0.00,VWS V14.01,2013-03-30 23:54:00,
2013-03-30 16:59:00,61.6,43.8,30.15,NNW,330,2.0,8.0,52,0.00,,---,0.00,VWS V14.01,2013-03-30 23:59:00,
2013-03-30 17:04:00,61.4,42.6,30.14,ESE,111,0.0,9.0,50,0.00,,---,0.00,VWS V14.01,2013-03-31 00:04:00,
2013-03-30 17:09:00,61.4,43.1,30.14,WSW,247,2.0,9.0,51,0.00,,---,0.00,VWS V14.01,2013-03-31 00:09:00,
2013-03-30 17:14:00,61.7,43.4,30.14,NNE,27,1.0,9.0,51,0.00,,---,0.00,VWS V14.01,2013-03-31 00:14:00,
2013-03-30 17:19:00,62.3,44.0,30.14,NW,325,0.0,7.0,51,0.00,,---,0.00,VWS V14.01,2013-03-31 00:19:00,
2013-03-30 17:24:00,62.4,44.6,30.14,SSE,167,0.0,7.0,52,0.00,,---,0.00,VWS V14.01,2013-03-31 00:24:00,
2013-03-30 17:29:00,62.9,45.0,30.14,WNW,285,1.0,7.0,52,0.00,,---,0.00,VWS V14.01,2013-03-31 00:29:00,
2013-03-30 17:34:00,63.4,45.5,30.14,SW,236,0.0,5.0,52,0.00,,---,0.00,VWS V14.01,2013-03-31 00:34:00,
2013-03-30 17:39:00,63.5,45.6,30.13,NE,53,3.0,6.0,52,0.00,,---,0.00,VWS V14.01,2013-03-31 00:39:00,
2013-03-30 17:44:00,63.3,44.9,30.13,NE,34,0.0,6.0,51,0.00,,---,0.00,VWS V14.01,2013-03-31 00:44:00,
2013-03-30 17:49:00,62.2,44.9,30.13,NE,34,4.0,7.0,53,0.00,,---,0.00,VWS V14.01,2013-03-31 00:49:00,
2013-03-30 17:54:00,61.2,45.4,30.13,ENE,61,4.0,9.0,56,0.00,,---,0.00,VWS V14.01,2013-03-31 00:54:00,
2013-03-30 17:59:00,60.6,45.3,30.13,NE,55,5.0,9.0,57,0.00,,---,0.00,VWS V14.01,2013-03-31 00:59:00,
2013-03-30 18:04:00,59.6,44.8,30.13,East,86,3.0,10.0,58,0.00,,---,0.00,VWS V14.01,2013-03-31 01:04:00,
2013-03-30 18:09:00,59.2,44.9,30.12,NE,49,3.0,10.0,59,0.00,,---,0.00,VWS V14.01,2013-03-31 01:09:00,
2013-03-30 18:14:00,59.0,44.7,30.12,NW,323,0.0,10.0,59,0.00,,---,0.00,VWS V14.01,2013-03-31 01:14:00,
2013-03-30 18:19:00,58.9,44.6,30.12,NNW,338,2.0,5.0,59,0.00,,---,0.00,VWS V14.01,2013-03-31 01:19:00,
2013-03-30 18:24:00,58.6,44.8,30.12,NNE,32,5.0,10.0,60,0.00,,---,0.00,VWS V14.01,2013-03-31 01:24:00,
2013-03-30 18:29:00,58.7,44.4,30.12,North,360,0.0,10.0,59,0.00,,---,0.00,VWS V14.01,2013-03-31 01:29:00,
2013-03-30 18:34:00,58.7,44.9,30.12,East,96,0.0,6.0,60,0.00,,---,0.00,VWS V14.01,2013-03-31 01:34:00,
2013-03-30 18:39:00,58.6,45.2,30.12,NNE,18,4.0,6.0,61,0.00,,---,0.00,VWS V14.01,2013-03-31 01:39:00,
2013-03-30 18:44:00,58.2,44.4,30.12,ENE,58,3.0,6.0,60,0.00,,---,0.00,VWS V14.01,2013-03-31 01:44:00,
2013-03-30 18:49:00,58.0,44.6,30.11,NNE,23,5.0,5.0,61,0.00,,---,0.00,VWS V14.01,2013-03-31 01:49:00,
2013-03-30 18:54:00,57.7,44.8,30.11,NE,53,4.0,7.0,62,0.00,,---,0.00,VWS V14.01,2013-03-31 01:54:00,
2013-03-30 18:59:00,57.3,44.8,30.11,NNE,30,3.0,7.0,63,0.00,,---,0.00,VWS V14.01,2013-03-31 01:59:00,
2013-03-30 19:04:00,56.9,44.5,30.11,ENE,67,3.0,5.0,63,0.00,,---,0.00,VWS V14.01,2013-03-31 02:04:00,
2013-03-30 19:09:00,56.4,44.8,30.11,NE,45,2.0,5.0,65,0.00,,---,0.00,VWS V14.01,2013-03-31 02:09:00,
2013-03-30 19:14:00,56.0,44.4,30.11,NNE,29,0.0,5.0,65,0.00,,---,0.00,VWS V14.01,2013-03-31 02:14:00,
2013-03-30 19:19:00,55.5,44.3,30.11,East,86,0.0,2.0,66,0.00,,---,0.00,VWS V14.01,2013-03-31 02:19:00,
2013-03-30 19:24:00,55.1,44.3,30.11,NE,46,2.0,4.0,67,0.00,,---,0.00,VWS V14.01,2013-03-31 02:24:00,
2013-03-30 19:29:00,54.8,44.1,30.11,ESE,105,1.0,5.0,67,0.00,,---,0.00,VWS V14.01,2013-03-31 02:29:00,
2013-03-30 19:34:00,54.5,44.5,30.11,ENE,76,2.0,2.0,69,0.00,,---,0.00,VWS V14.01,2013-03-31 02:34:00,
2013-03-30 19:39:00,54.1,44.2,30.11,ESE,116,3.0,5.0,69,0.00,,---,0.00,VWS V14.01,2013-03-31 02:39:00,
2013-03-30 19:44:00,53.8,44.3,30.11,ESE,119,0.0,5.0,70,0.00,,---,0.00,VWS V14.01,2013-03-31 02:44:00,
2013-03-30 19:49:00,53.6,44.1,30.11,NNE,24,0.0,4.0,70,0.00,,---,0.00,VWS V14.01,2013-03-31 02:49:00,
2013-03-30 19:54:00,53.4,44.2,30.11,East,79,1.0,4.0,71,0.00,,---,0.00,VWS V14.01,2013-03-31 02:54:00,
2013-03-30 19:59:00,53.3,44.2,30.11,East,90,1.0,4.0,71,0.00,,---,0.00,VWS V14.01,2013-03-31 02:59:00,
2013-03-30 20:04:00,53.2,44.0,30.11,North,11,0.0,7.0,71,0.00,,---,0.00,VWS V14.01,2013-03-31 03:04:00,
2013-03-30 20:09:00,53.0,44.2,30.11,NNE,30,0.0,7.0,72,0.00,,---,0.00,VWS V14.01,2013-03-31 03:09:00,
2013-03-30 20:14:00,52.8,44.0,30.11,NE,38,1.0,7.0,72,0.00,,---,0.00,VWS V14.01,2013-03-31 03:14:00,
2013-03-30 20:19:00,52.6,44.2,30.11,NNE,29,2.0,4.0,73,0.00,,---,0.00,VWS V14.01,2013-03-31 03:19:00,
2013-03-30 20:24:00,52.3,43.9,30.11,ENE,62,2.0,4.0,73,0.00,,---,0.00,VWS V14.01,2013-03-31 03:24:00,
2013-03-30 20:29:00,52.1,43.7,30.11,ENE,71,1.0,5.0,73,0.00,,---,0.00,VWS V14.01,2013-03-31 03:29:00,
2013-03-30 20:34:00,52.1,43.7,30.11,East,90,0.0,2.0,73,0.00,,---,0.00,VWS V14.01,2013-03-31 03:34:00,
2013-03-30 20:39:00,51.9,43.5,30.11,SE,125,2.0,2.0,73,0.00,,---,0.00,VWS V14.01,2013-03-31 03:39:00,
2013-03-30 20:44:00,51.9,43.5,30.11,ESE,115,2.0,2.0,73,0.00,,---,0.00,VWS V14.01,2013-03-31 03:44:00,
2013-03-30 20:49:00,51.8,43.1,30.11,NE,42,5.0,5.0,72,0.00,,---,0.00,VWS V14.01,2013-03-31 03:49:00,
2013-03-30 20:54:00,52.0,43.3,30.11,ENE,76,0.0,5.0,72,0.00,,---,0.00,VWS V14.01,2013-03-31 03:54:00,
2013-03-30 20:59:00,52.0,42.9,30.11,East,97,1.0,5.0,71,0.00,,---,0.00,VWS V14.01,2013-03-31 03:59:00,
2013-03-30 21:00:00,52.0,42.9,30.11,East,97,1.0,5.0,71,0.00,,---,0.00,VWS V14.01,2013-03-31 04:00:00,
2013-03-30 21:05:00,52.0,42.9,30.11,ESE,103,1.0,2.0,71,0.00,,---,0.00,VWS V14.01,2013-03-31 04:05:00,
2013-03-30 21:10:00,52.0,42.5,30.11,East,92,0.0,3.0,70,0.00,,---,0.00,VWS V14.01,2013-03-31 04:10:00,
2013-03-30 21:15:00,52.0,42.5,30.11,ENE,70,2.0,3.0,70,0.00,,---,0.00,VWS V14.01,2013-03-31 04:15:00,
2013-03-30 21:20:00,51.9,42.4,30.11,NE,45,0.0,2.0,70,0.00,,---,0.00,VWS V14.01,2013-03-31 04:20:00,
2013-03-30 21:25:00,51.8,42.3,30.10,NNE,15,2.0,2.0,70,0.00,,---,0.00,VWS V14.01,2013-03-31 04:25:00,
2013-03-30 21:30:00,51.7,42.2,30.11,NNW,327,4.0,6.0,70,0.00,,---,0.00,VWS V14.01,2013-03-31 04:30:00,
2013-03-30 21:35:00,51.8,42.3,30.11,SSE,159,1.0,5.0,70,0.00,,---,0.00,VWS V14.01,2013-03-31 04:35:00,
2013-03-30 21:40:00,51.9,42.1,30.10,NE,56,0.0,5.0,69,0.00,,---,0.00,VWS V14.01,2013-03-31 04:40:00,
2013-03-30 21:45:00,51.8,42.0,30.11,East,100,0.0,5.0,69,0.00,,---,0.00,VWS V14.01,2013-03-31 04:45:00,
2013-03-30 21:50:00,51.7,42.2,30.10,ESE,114,0.0,2.0,70,0.00,,---,0.00,VWS V14.01,2013-03-31 04:50:00,
2013-03-30 21:55:00,51.5,42.0,30.10,ENE,61,1.0,3.0,70,0.00,,---,0.00,VWS V14.01,2013-03-31 04:55:00,
2013-03-30 22:00:00,51.3,41.9,30.10,East,94,1.0,5.0,70,0.00,,---,0.00,VWS V14.01,2013-03-31 05:00:00,
2013-03-30 22:05:00,51.2,41.8,30.10,East,83,2.0,3.0,70,0.00,,---,0.00,VWS V14.01,2013-03-31 05:05:00,
2013-03-30 22:10:00,51.0,41.9,30.10,NE,51,2.0,3.0,71,0.00,,---,0.00,VWS V14.01,2013-03-31 05:10:00,
2013-03-30 22:15:00,50.6,41.9,30.10,ESE,119,0.0,3.0,72,0.00,,---,0.00,VWS V14.01,2013-03-31 05:15:00,
2013-03-30 22:20:00,50.2,41.9,30.10,East,84,1.0,2.0,73,0.00,,---,0.00,VWS V14.01,2013-03-31 05:20:00,
2013-03-30 22:25:00,49.9,41.6,30.10,East,85,0.0,3.0,73,0.00,,---,0.00,VWS V14.01,2013-03-31 05:25:00,
2013-03-30 22:30:00,49.7,41.8,30.10,ESE,103,1.0,3.0,74,0.00,,---,0.00,VWS V14.01,2013-03-31 05:30:00,
2013-03-30 22:35:00,49.5,41.6,30.10,East,84,1.0,2.0,74,0.00,,---,0.00,VWS V14.01,2013-03-31 05:35:00,
2013-03-30 22:40:00,49.5,41.2,30.10,East,88,1.0,3.0,73,0.00,,---,0.00,VWS V14.01,2013-03-31 05:40:00,
2013-03-30 22:45:00,49.5,41.2,30.10,NE,51,4.0,5.0,73,0.00,,---,0.00,VWS V14.01,2013-03-31 05:45:00,
2013-03-30 22:50:00,49.5,41.2,30.10,North,5,0.0,3.0,73,0.00,,---,0.00,VWS V14.01,2013-03-31 05:50:00,
2013-03-30 22:55:00,49.7,41.0,30.09,SE,141,2.0,4.0,72,0.00,,---,0.00,VWS V14.01,2013-03-31 05:55:00,
2013-03-30 23:00:00,49.9,40.9,30.09,ENE,77,2.0,4.0,71,0.00,,---,0.00,VWS V14.01,2013-03-31 06:00:00,
2013-03-30 23:05:00,50.0,40.6,30.09,East,95,1.0,3.0,70,0.00,,---,0.00,VWS V14.01,2013-03-31 06:05:00,
2013-03-30 23:10:00,50.1,40.7,30.09,SE,140,0.0,3.0,70,0.00,,---,0.00,VWS V14.01,2013-03-31 06:10:00,
2013-03-30 23:15:00,50.2,40.4,30.09,NE,51,0.0,3.0,69,0.00,,---,0.00,VWS V14.01,2013-03-31 06:15:00,
2013-03-30 23:20:00,50.3,40.2,30.09,ESE,111,0.0,3.0,68,0.00,,---,0.00,VWS V14.01,2013-03-31 06:20:00,
2013-03-30 23:25:00,50.5,40.3,30.09,East,80,1.0,3.0,68,0.00,,---,0.00,VWS V14.01,2013-03-31 06:25:00,
2013-03-30 23:30:00,50.5,40.3,30.09,SE,139,1.0,3.0,68,0.00,,---,0.00,VWS V14.01,2013-03-31 06:30:00,
2013-03-30 23:35:00,50.5,40.3,30.09,NNW,344,1.0,2.0,68,0.00,,---,0.00,VWS V14.01,2013-03-31 06:35:00,
2013-03-30 23:40:00,50.7,40.5,30.09,SE,135,1.0,2.0,68,0.00,,---,0.00,VWS V14.01,2013-03-31 06:40:00,
2013-03-30 23:45:00,50.8,40.2,30.09,NE,54,2.0,2.0,67,0.00,,---,0.00,VWS V14.01,2013-03-31 06:45:00,
2013-03-30 23:50:00,50.8,40.6,30.09,NE,34,1.0,2.0,68,0.00,,---,0.00,VWS V14.01,2013-03-31 06:50:00,
2013-03-30 23:55:00,50.7,40.2,30.09,East,92,0.0,3.0,67,0.00,,---,0.00,VWS V14.01,2013-03-31 06:55:00,